Friday, December 14, 2018, 7:51 PM EST
Back to Local

KTAN, Taunton Municipal Airport

Location: East Taunton, MA, United States Lat: 41.883
Local Time: 7:51 PM EST ( 0:51 GMT) Lon: -71.017
Time Zone: US/Eastern Elev: 42 ft

Show me the last for .
Show Decoded

2018-12-14 19:13 METAR KTAN 150013Z AUTO 13003KT 10SM FEW016 BKN085 04/03 A3034 RMK AO2 T00440028
                 =
2018-12-14 19:02 METAR KTAN 150002Z AUTO 13003KT 10SM BKN016 BKN080 05/03 A3035 RMK AO2 T00500028
                 =
2018-12-14 18:52 METAR KTAN 142352Z AUTO 15003KT 10SM SCT016 BKN080 05/03 A3035 RMK AO2 SLP278
                 T00500028 10094 20044 58017 =
2018-12-14 17:52 METAR KTAN 142252Z AUTO 14004KT 10SM OVC018 06/02 A3038 RMK AO2 SLP288 T00560022
                 =
2018-12-14 16:52 METAR KTAN 142152Z AUTO 00000KT 10SM OVC017 05/02 A3040 RMK AO2 SLP294 T00500022
                 =
2018-12-14 16:29 METAR KTAN 142129Z AUTO 14003KT 10SM BKN020 OVC060 04/01 A3040 RMK AO2 T00440011
                 =
2018-12-14 15:52 METAR KTAN 142052Z AUTO 17003KT 10SM FEW060 07/02 A3040 RMK AO2 SLP294 T00670022
                 56009 =
2018-12-14 14:52 METAR KTAN 141952Z AUTO 20006KT 10SM FEW022 BKN065 08/02 A3041 RMK AO2 SLP297
                 T00780017 =
2018-12-14 13:52 METAR KTAN 141852Z AUTO 16003KT 10SM CLR 09/M01 A3041 RMK AO2 SLP296 T00891006 =
2018-12-14 12:52 METAR KTAN 141752Z AUTO 18007KT 10SM CLR 09/M01 A3043 RMK AO2 SLP303 T00891011
                 10089 21078 58034 =
2018-12-14 11:52 METAR KTAN 141652Z AUTO 17005KT 10SM CLR 08/00 A3046 RMK AO2 SLP316 T00830000 =
2018-12-14 10:52 METAR KTAN 141552Z AUTO 12003KT 10SM CLR 07/M01 A3051 RMK AO2 SLP330 T00671006 =
2018-12-14 09:52 METAR KTAN 141452Z AUTO 00000KT 10SM CLR 03/M02 A3053 RMK AO2 SLP338 T00281017
                 50001 =
2018-12-14 08:52 METAR KTAN 141352Z AUTO 00000KT 8SM CLR M01/M04 A3054 RMK AO2 SLP341 T10111039 =
2018-12-14 07:52 METAR KTAN 141252Z AUTO 00000KT 7SM CLR M06/M07 A3052 RMK AO2 SLP335 T10561072 =
2018-12-14 06:52 METAR KTAN 141152Z AUTO 00000KT 10SM CLR M08/M09 A3052 RMK AO2 SLP336 I1000
                 I6001 T10781094 11050 21078 56002 =
2018-12-14 05:52 METAR KTAN 141052Z AUTO 00000KT 9SM CLR M08/M09 A3053 RMK AO2 SLP337 I1000
                 T10781094 =
2018-12-14 04:52 METAR KTAN 140952Z AUTO 00000KT 9SM CLR M08/M09 A3051 RMK AO2 SLP333 I1000
                 T10781089 =
2018-12-14 03:52 METAR KTAN 140852Z AUTO 00000KT 10SM CLR M07/M08 A3053 RMK AO2 SLP339 I1000
                 I3001 T10671083 58011 =
2018-12-14 02:52 METAR KTAN 140752Z AUTO 00000KT 9SM CLR M07/M08 A3055 RMK AO2 SLP346 T10671078 =
2018-12-14 01:52 METAR KTAN 140652Z AUTO 00000KT 8SM CLR M06/M08 A3057 RMK AO2 SLP351 I1001
                 T10611078 =
2018-12-14 00:52 METAR KTAN 140552Z AUTO 00000KT 9SM CLR M06/M07 A3056 RMK AO2 SLP350 T10561072
                 11011 21056 53003 =
2018-12-13 23:52 METAR KTAN 140452Z AUTO 00000KT 10SM CLR M04/M06 A3054 RMK AO2 SLP343 T10391061
                 400221100 =
2018-12-13 22:52 METAR KTAN 140352Z AUTO 00000KT 10SM BKN070 M03/M06 A3054 RMK AO2 SLP343
                 T10281056 =
2018-12-13 21:52 METAR KTAN 140252Z AUTO 00000KT 10SM OVC070 M01/M04 A3056 RMK AO2 SLP347
                 T10111039 58000 =
2018-12-13 20:52 METAR KTAN 140152Z AUTO 00000KT 10SM FEW060 OVC075 M02/M05 A3056 RMK AO2 SLP350
                 T10171050 =
2018-12-13 19:52 METAR KTAN 140052Z AUTO 00000KT 10SM OVC080 M02/M06 A3056 RMK AO2 SLP347
                 T10221056 =

Support USWX by starting your Amazon purchase here.